PWSweather.com
Personal Weather Stations
Station Observations
IPORTUGA89
BarosaPT

BarosaPT

Lat: 39.754028, Lon: -8.843

Elevation: 98

Station Type: Davis Vp2

High Low Average
Temperature 58.6°F14.8°C 43.3°F6.3°C 52.7°F11.5°C
Dew Point 55.9°F13.3°C 41.5°F5.3°C 50.7°F10.4°C
Winds 8.1 mph 13.0 kmh Calm Calm 1.0 mph NW1.6 kmh NW
Wind Gusts 16.1 mph25.9 kmh -- 4.0 mph6.4 kmh
Humidity 96% 85% 93%
Pressure 30.39 in1029.1 mb 30.27 in1025.1 mb -
Precipitation 0.12 in3.0 mm - -
Hour Temp Dew Point Humidity Winds Wind Gusts Pressure Precip Precip Rate Daily Precip Total
12:03 AM 43.3°F6.3°C 41.5°F5.3°C 93% Calm Calm -- 30.39 in1029.1 mb 0.00 in0.0 mm 0.00 in0.0 mm 0.00 in0.0 mm
12:13 AM 43.9°F6.6°C 41.9°F5.5°C 93% Calm Calm -- 30.39 in1029.1 mb 0.00 in0.0 mm 0.00 in0.0 mm 0.00 in0.0 mm
12:23 AM 44.1°F6.7°C 42.1°F5.6°C 93% Calm Calm -- 30.39 in1029.1 mb 0.00 in0.0 mm 0.00 in0.0 mm 0.00 in0.0 mm
12:33 AM 44.4°F6.9°C 42.4°F5.8°C 93% Calm Calm -- 30.39 in1029.1 mb 0.00 in0.0 mm 0.00 in0.0 mm 0.00 in0.0 mm
12:44 AM 44.8°F7.1°C 42.8°F6.0°C 93% Calm Calm -- 30.39 in1029.1 mb 0.00 in0.0 mm 0.00 in0.0 mm 0.00 in0.0 mm
12:54 AM 45.0°F7.2°C 43.0°F6.1°C 93% Calm Calm -- 30.38 in1028.8 mb 0.00 in0.0 mm 0.00 in0.0 mm 0.00 in0.0 mm
01:04 AM 45.0°F7.2°C 43.3°F6.3°C 94% Calm Calm -- 30.38 in1028.8 mb 0.00 in0.0 mm 0.00 in0.0 mm 0.00 in0.0 mm
01:14 AM 45.1°F7.3°C 43.5°F6.4°C 94% Calm Calm -- 30.38 in1028.8 mb 0.00 in0.0 mm 0.00 in0.0 mm 0.00 in0.0 mm
01:24 AM 45.3°F7.4°C 43.7°F6.5°C 94% Calm Calm -- 30.38 in1028.8 mb 0.00 in0.0 mm 0.00 in0.0 mm 0.00 in0.0 mm
01:34 AM 45.7°F7.6°C 44.1°F6.7°C 94% Calm Calm -- 30.37 in1028.4 mb 0.00 in0.0 mm 0.00 in0.0 mm 0.00 in0.0 mm
01:44 AM 45.7°F7.6°C 44.1°F6.7°C 94% Calm Calm -- 30.37 in1028.4 mb 0.00 in0.0 mm 0.00 in0.0 mm 0.00 in0.0 mm
01:54 AM 45.7°F7.6°C 44.1°F6.7°C 94% Calm Calm -- 30.37 in1028.4 mb 0.00 in0.0 mm 0.00 in0.0 mm 0.00 in0.0 mm
02:04 AM 45.7°F7.6°C 44.1°F6.7°C 94% Calm Calm -- 30.37 in1028.4 mb 0.00 in0.0 mm 0.00 in0.0 mm 0.00 in0.0 mm
02:15 AM 45.9°F7.7°C 44.2°F6.8°C 94% Calm Calm -- 30.37 in1028.4 mb 0.00 in0.0 mm 0.00 in0.0 mm 0.00 in0.0 mm
02:25 AM 46.2°F7.9°C 44.6°F7.0°C 94% Calm Calm -- 30.37 in1028.4 mb 0.00 in0.0 mm 0.00 in0.0 mm 0.00 in0.0 mm
02:35 AM 46.2°F7.9°C 44.6°F7.0°C 94% Calm Calm -- 30.37 in1028.4 mb 0.00 in0.0 mm 0.00 in0.0 mm 0.00 in0.0 mm
02:45 AM 46.2°F7.9°C 44.6°F7.0°C 94% Calm Calm -- 30.37 in1028.4 mb 0.00 in0.0 mm 0.00 in0.0 mm 0.00 in0.0 mm
02:55 AM 46.2°F7.9°C 44.6°F7.0°C 94% Calm Calm -- 30.36 in1028.1 mb 0.00 in0.0 mm 0.00 in0.0 mm 0.00 in0.0 mm
03:06 AM 46.4°F8.0°C 44.8°F7.1°C 94% Calm Calm -- 30.36 in1028.1 mb 0.00 in0.0 mm 0.00 in0.0 mm 0.00 in0.0 mm
03:16 AM 46.6°F8.1°C 45.0°F7.2°C 94% Calm Calm -- 30.36 in1028.1 mb 0.00 in0.0 mm 0.00 in0.0 mm 0.00 in0.0 mm
03:26 AM 46.6°F8.1°C 45.0°F7.2°C 94% Calm Calm -- 30.35 in1027.8 mb 0.00 in0.0 mm 0.00 in0.0 mm 0.00 in0.0 mm
03:36 AM 46.6°F8.1°C 45.0°F7.2°C 94% Calm Calm -- 30.35 in1027.8 mb 0.00 in0.0 mm 0.00 in0.0 mm 0.00 in0.0 mm
03:46 AM 46.8°F8.2°C 45.1°F7.3°C 94% Calm Calm -- 30.35 in1027.8 mb 0.01 in0.3 mm 0.06 in1.5 mm 0.01 in0.3 mm
03:56 AM 46.8°F8.2°C 45.1°F7.3°C 94% Calm Calm -- 30.35 in1027.8 mb 0.01 in0.3 mm 0.00 in0.0 mm 0.01 in0.3 mm
04:06 AM 46.9°F8.3°C 45.3°F7.4°C 94% Calm Calm -- 30.34 in1027.4 mb 0.01 in0.3 mm 0.00 in0.0 mm 0.01 in0.3 mm
04:16 AM 47.1°F8.4°C 45.5°F7.5°C 94% Calm Calm -- 30.34 in1027.4 mb 0.01 in0.3 mm 0.00 in0.0 mm 0.01 in0.3 mm
04:27 AM 47.1°F8.4°C 45.5°F7.5°C 94% Calm Calm -- 30.34 in1027.4 mb 0.01 in0.3 mm 0.00 in0.0 mm 0.01 in0.3 mm
04:37 AM 47.3°F8.5°C 45.7°F7.6°C 94% Calm Calm -- 30.34 in1027.4 mb 0.01 in0.3 mm 0.00 in0.0 mm 0.01 in0.3 mm
04:47 AM 47.5°F8.6°C 45.9°F7.7°C 94% Calm Calm -- 30.34 in1027.4 mb 0.00 in0.0 mm 0.00 in0.0 mm 0.01 in0.3 mm
04:57 AM 47.7°F8.7°C 46.0°F7.8°C 94% Calm Calm -- 30.34 in1027.4 mb 0.00 in0.0 mm 0.00 in0.0 mm 0.01 in0.3 mm
05:07 AM 47.8°F8.8°C 46.2°F7.9°C 94% Calm Calm -- 30.34 in1027.4 mb 0.00 in0.0 mm 0.00 in0.0 mm 0.01 in0.3 mm
05:18 AM 47.8°F8.8°C 46.2°F7.9°C 94% Calm Calm -- 30.34 in1027.4 mb 0.00 in0.0 mm 0.00 in0.0 mm 0.01 in0.3 mm
05:28 AM 48.0°F8.9°C 46.4°F8.0°C 94% Calm Calm -- 30.34 in1027.4 mb 0.00 in0.0 mm 0.00 in0.0 mm 0.01 in0.3 mm
05:38 AM 48.0°F8.9°C 46.4°F8.0°C 94% Calm Calm -- 30.34 in1027.4 mb 0.01 in0.3 mm 0.06 in1.5 mm 0.02 in0.5 mm
05:48 AM 48.0°F8.9°C 46.4°F8.0°C 94% Calm Calm -- 30.34 in1027.4 mb 0.01 in0.3 mm 0.00 in0.0 mm 0.02 in0.5 mm
05:58 AM 48.4°F9.1°C 46.8°F8.2°C 94% Calm Calm -- 30.34 in1027.4 mb 0.01 in0.3 mm 0.00 in0.0 mm 0.02 in0.5 mm
06:08 AM 48.4°F9.1°C 46.8°F8.2°C 94% Calm Calm -- 30.34 in1027.4 mb 0.02 in0.5 mm 0.01 in0.3 mm 0.02 in0.5 mm
06:18 AM 48.6°F9.2°C 47.1°F8.4°C 95% Calm Calm -- 30.34 in1027.4 mb 0.02 in0.5 mm 0.00 in0.0 mm 0.02 in0.5 mm
06:29 AM 48.7°F9.3°C 47.3°F8.5°C 95% Calm Calm -- 30.34 in1027.4 mb 0.02 in0.5 mm 0.00 in0.0 mm 0.03 in0.8 mm
06:39 AM 48.7°F9.3°C 47.3°F8.5°C 95% Calm Calm -- 30.34 in1027.4 mb 0.02 in0.5 mm 0.00 in0.0 mm 0.04 in1.0 mm
06:49 AM 48.9°F9.4°C 47.5°F8.6°C 95% Calm Calm -- 30.34 in1027.4 mb 0.02 in0.5 mm 0.00 in0.0 mm 0.04 in1.0 mm
06:59 AM 49.1°F9.5°C 47.7°F8.7°C 95% Calm Calm -- 30.34 in1027.4 mb 0.02 in0.5 mm 0.00 in0.0 mm 0.04 in1.0 mm
07:09 AM 49.1°F9.5°C 47.7°F8.7°C 95% Calm Calm -- 30.34 in1027.4 mb 0.02 in0.5 mm 0.00 in0.0 mm 0.04 in1.0 mm
07:19 AM 49.3°F9.6°C 47.8°F8.8°C 95% Calm Calm -- 30.34 in1027.4 mb 0.02 in0.5 mm 0.00 in0.0 mm 0.04 in1.0 mm
07:29 AM 49.3°F9.6°C 47.8°F8.8°C 95% Calm Calm -- 30.34 in1027.4 mb 0.02 in0.5 mm 0.00 in0.0 mm 0.05 in1.3 mm
07:39 AM 49.5°F9.7°C 48.0°F8.9°C 95% Calm Calm -- 30.35 in1027.8 mb 0.01 in0.3 mm 0.00 in0.0 mm 0.05 in1.3 mm
07:50 AM 49.5°F9.7°C 48.0°F8.9°C 95% Calm Calm -- 30.35 in1027.8 mb 0.01 in0.3 mm 0.00 in0.0 mm 0.05 in1.3 mm
08:00 AM 49.6°F9.8°C 48.2°F9.0°C 95% Calm Calm -- 30.35 in1027.8 mb 0.01 in0.3 mm 0.00 in0.0 mm 0.05 in1.3 mm
08:10 AM 49.6°F9.8°C 48.2°F9.0°C 95% Calm Calm -- 30.35 in1027.8 mb 0.01 in0.3 mm 0.00 in0.0 mm 0.05 in1.3 mm
08:20 AM 49.8°F9.9°C 48.4°F9.1°C 95% Calm Calm -- 30.35 in1027.8 mb 0.00 in0.0 mm 0.00 in0.0 mm 0.05 in1.3 mm
08:30 AM 50.2°F10.1°C 48.7°F9.3°C 95% Calm Calm -- 30.36 in1028.1 mb 0.00 in0.0 mm 0.00 in0.0 mm 0.05 in1.3 mm
08:40 AM 50.4°F10.2°C 48.9°F9.4°C 95% Calm Calm -- 30.36 in1028.1 mb 0.00 in0.0 mm 0.00 in0.0 mm 0.05 in1.3 mm
08:50 AM 50.5°F10.3°C 49.1°F9.5°C 95% Calm Calm -- 30.36 in1028.1 mb 0.00 in0.0 mm 0.00 in0.0 mm 0.05 in1.3 mm
09:00 AM 51.1°F10.6°C 49.6°F9.8°C 95% Calm Calm -- 30.36 in1028.1 mb 0.00 in0.0 mm 0.00 in0.0 mm 0.05 in1.3 mm
09:10 AM 51.4°F10.8°C 50.0°F10.0°C 95% Calm Calm -- 30.36 in1028.1 mb 0.00 in0.0 mm 0.00 in0.0 mm 0.05 in1.3 mm
09:20 AM 51.6°F10.9°C 50.2°F10.1°C 95% Calm Calm -- 30.37 in1028.4 mb 0.00 in0.0 mm 0.00 in0.0 mm 0.05 in1.3 mm
09:31 AM 52.3°F11.3°C 50.9°F10.5°C 95% Calm Calm 0.9 mph1.4 kmh 30.37 in1028.4 mb 0.00 in0.0 mm 0.00 in0.0 mm 0.05 in1.3 mm
09:41 AM 53.8°F12.1°C 52.7°F11.5°C 96% Calm Calm -- 30.37 in1028.4 mb 0.00 in0.0 mm 0.00 in0.0 mm 0.05 in1.3 mm
09:51 AM 54.9°F12.7°C 53.8°F12.1°C 96% Calm Calm -- 30.37 in1028.4 mb 0.00 in0.0 mm 0.00 in0.0 mm 0.05 in1.3 mm
10:01 AM 55.2°F12.9°C 54.1°F12.3°C 96% Calm Calm -- 30.37 in1028.4 mb 0.00 in0.0 mm 0.00 in0.0 mm 0.05 in1.3 mm
10:12 AM 55.6°F13.1°C 54.1°F12.3°C 95% Calm Calm -- 30.37 in1028.4 mb 0.00 in0.0 mm 0.00 in0.0 mm 0.05 in1.3 mm
10:22 AM 55.8°F13.2°C 54.3°F12.4°C 95% Calm Calm -- 30.37 in1028.4 mb 0.00 in0.0 mm 0.00 in0.0 mm 0.05 in1.3 mm
10:32 AM 55.9°F13.3°C 54.5°F12.5°C 95% Calm Calm -- 30.37 in1028.4 mb 0.01 in0.3 mm 0.06 in1.5 mm 0.06 in1.5 mm
10:42 AM 56.1°F13.4°C 54.7°F12.6°C 95% Calm Calm -- 30.37 in1028.4 mb 0.02 in0.5 mm 0.06 in1.5 mm 0.06 in1.5 mm
10:52 AM 56.1°F13.4°C 54.7°F12.6°C 95% 2.0 mph NW3.2 kmh NW 13.0 mph20.9 kmh 30.37 in1028.4 mb 0.02 in0.5 mm 0.00 in0.0 mm 0.06 in1.5 mm
11:02 AM 56.1°F13.4°C 54.7°F12.6°C 95% Calm Calm -- 30.37 in1028.4 mb 0.02 in0.5 mm 0.00 in0.0 mm 0.06 in1.5 mm
11:12 AM 56.1°F13.4°C 54.7°F12.6°C 95% Calm Calm 2.9 mph4.7 kmh 30.37 in1028.4 mb 0.02 in0.5 mm 0.00 in0.0 mm 0.07 in1.8 mm
11:22 AM 56.5°F13.6°C 55.0°F12.8°C 95% Calm Calm 0.9 mph1.4 kmh 30.37 in1028.4 mb 0.02 in0.5 mm 0.00 in0.0 mm 0.07 in1.8 mm
11:32 AM 56.5°F13.6°C 55.0°F12.8°C 95% Calm Calm -- 30.37 in1028.4 mb 0.02 in0.5 mm 0.00 in0.0 mm 0.07 in1.8 mm
11:42 AM 56.5°F13.6°C 55.0°F12.8°C 95% Calm Calm -- 30.37 in1028.4 mb 0.01 in0.3 mm 0.00 in0.0 mm 0.07 in1.8 mm
11:52 AM 56.7°F13.7°C 55.2°F12.9°C 95% Calm Calm -- 30.37 in1028.4 mb 0.01 in0.3 mm 0.00 in0.0 mm 0.07 in1.8 mm
12:02 PM 56.8°F13.8°C 55.4°F13.0°C 95% Calm Calm -- 30.36 in1028.1 mb 0.01 in0.3 mm 0.00 in0.0 mm 0.07 in1.8 mm
12:12 PM 57.0°F13.9°C 55.6°F13.1°C 95% Calm Calm -- 30.36 in1028.1 mb 0.00 in0.0 mm 0.00 in0.0 mm 0.07 in1.8 mm
12:22 PM 57.4°F14.1°C 55.9°F13.3°C 95% Calm Calm 8.1 mph13.0 kmh 30.36 in1028.1 mb 0.00 in0.0 mm 0.00 in0.0 mm 0.07 in1.8 mm
12:32 PM 57.6°F14.2°C 55.8°F13.2°C 94% Calm Calm -- 30.35 in1027.8 mb 0.00 in0.0 mm 0.00 in0.0 mm 0.07 in1.8 mm
12:42 PM 57.6°F14.2°C 55.8°F13.2°C 94% Calm Calm 11.0 mph17.7 kmh 30.35 in1027.8 mb 0.00 in0.0 mm 0.00 in0.0 mm 0.07 in1.8 mm
12:52 PM 57.6°F14.2°C 55.8°F13.2°C 94% Calm Calm -- 30.35 in1027.8 mb 0.00 in0.0 mm 0.00 in0.0 mm 0.07 in1.8 mm
01:02 PM 57.4°F14.1°C 55.6°F13.1°C 94% 2.0 mph NW3.2 kmh NW 11.0 mph17.7 kmh 30.35 in1027.8 mb 0.00 in0.0 mm 0.00 in0.0 mm 0.07 in1.8 mm
01:12 PM 57.7°F14.3°C 55.9°F13.3°C 94% 0.9 mph WNW1.4 kmh WNW 11.0 mph17.7 kmh 30.34 in1027.4 mb 0.00 in0.0 mm 0.00 in0.0 mm 0.07 in1.8 mm
01:22 PM 57.4°F14.1°C 55.4°F13.0°C 93% 4.0 mph NW6.4 kmh NW 13.0 mph20.9 kmh 30.34 in1027.4 mb 0.00 in0.0 mm 0.00 in0.0 mm 0.07 in1.8 mm
01:32 PM 56.8°F13.8°C 54.9°F12.7°C 93% 2.9 mph NW4.7 kmh NW 16.1 mph25.9 kmh 30.34 in1027.4 mb 0.01 in0.3 mm 0.06 in1.5 mm 0.08 in2.0 mm
01:43 PM 56.7°F13.7°C 54.7°F12.6°C 93% 6.9 mph NW11.1 kmh NW 12.1 mph19.5 kmh 30.33 in1027.1 mb 0.01 in0.3 mm 0.00 in0.0 mm 0.08 in2.0 mm
01:53 PM 56.7°F13.7°C 54.7°F12.6°C 93% 4.9 mph NW7.9 kmh NW 14.1 mph22.7 kmh 30.33 in1027.1 mb 0.01 in0.3 mm 0.00 in0.0 mm 0.08 in2.0 mm
02:03 PM 56.8°F13.8°C 54.9°F12.7°C 93% 6.0 mph NW9.7 kmh NW 13.0 mph20.9 kmh 30.33 in1027.1 mb 0.01 in0.3 mm 0.00 in0.0 mm 0.08 in2.0 mm
02:13 PM 57.6°F14.2°C 55.6°F13.1°C 93% 4.0 mph NW6.4 kmh NW 8.9 mph14.3 kmh 30.32 in1026.8 mb 0.01 in0.3 mm 0.00 in0.0 mm 0.08 in2.0 mm
02:23 PM 57.9°F14.4°C 55.6°F13.1°C 92% 4.0 mph WNW6.4 kmh WNW 8.9 mph14.3 kmh 30.32 in1026.8 mb 0.01 in0.3 mm 0.00 in0.0 mm 0.08 in2.0 mm
02:33 PM 58.3°F14.6°C 55.4°F13.0°C 90% 6.9 mph WNW11.1 kmh WNW 15.0 mph24.1 kmh 30.32 in1026.8 mb 0.00 in0.0 mm 0.00 in0.0 mm 0.08 in2.0 mm
02:43 PM 58.3°F14.6°C 55.0°F12.8°C 89% 6.9 mph NW11.1 kmh NW 13.0 mph20.9 kmh 30.32 in1026.8 mb 0.00 in0.0 mm 0.00 in0.0 mm 0.08 in2.0 mm
02:53 PM 58.6°F14.8°C 55.0°F12.8°C 88% 6.0 mph NW9.7 kmh NW 13.0 mph20.9 kmh 30.31 in1026.4 mb 0.00 in0.0 mm 0.00 in0.0 mm 0.08 in2.0 mm
03:03 PM 58.6°F14.8°C 54.5°F12.5°C 86% 8.1 mph NW13.0 kmh NW 14.1 mph22.7 kmh 30.31 in1026.4 mb 0.00 in0.0 mm 0.00 in0.0 mm 0.08 in2.0 mm
03:13 PM 58.5°F14.7°C 54.0°F12.2°C 85% 8.1 mph NW13.0 kmh NW 16.1 mph25.9 kmh 30.31 in1026.4 mb 0.00 in0.0 mm 0.00 in0.0 mm 0.08 in2.0 mm
03:23 PM 57.9°F14.4°C 53.8°F12.1°C 86% 8.1 mph NNW13.0 kmh NNW 16.1 mph25.9 kmh 30.31 in1026.4 mb 0.00 in0.0 mm 0.00 in0.0 mm 0.08 in2.0 mm
03:33 PM 57.7°F14.3°C 54.0°F12.2°C 87% 4.0 mph WNW6.4 kmh WNW 10.1 mph16.3 kmh 30.31 in1026.4 mb 0.00 in0.0 mm 0.00 in0.0 mm 0.08 in2.0 mm
03:43 PM 57.9°F14.4°C 54.3°F12.4°C 88% 4.0 mph W6.4 kmh W 6.9 mph11.1 kmh 30.30 in1026.1 mb 0.00 in0.0 mm 0.00 in0.0 mm 0.08 in2.0 mm
03:53 PM 58.1°F14.5°C 54.3°F12.4°C 87% 4.0 mph SW6.4 kmh SW 10.1 mph16.3 kmh 30.30 in1026.1 mb 0.00 in0.0 mm 0.00 in0.0 mm 0.08 in2.0 mm
04:03 PM 58.3°F14.6°C 54.1°F12.3°C 86% 4.9 mph W7.9 kmh W 8.9 mph14.3 kmh 30.30 in1026.1 mb 0.00 in0.0 mm 0.00 in0.0 mm 0.08 in2.0 mm
04:13 PM 57.9°F14.4°C 53.8°F12.1°C 86% 4.0 mph W6.4 kmh W 8.1 mph13.0 kmh 30.30 in1026.1 mb 0.00 in0.0 mm 0.00 in0.0 mm 0.08 in2.0 mm
04:23 PM 57.9°F14.4°C 53.8°F12.1°C 86% 4.0 mph W6.4 kmh W 12.1 mph19.5 kmh 30.29 in1025.7 mb 0.00 in0.0 mm 0.00 in0.0 mm 0.08 in2.0 mm
04:33 PM 57.9°F14.4°C 53.8°F12.1°C 86% 4.0 mph WNW6.4 kmh WNW 10.1 mph16.3 kmh 30.30 in1026.1 mb 0.00 in0.0 mm 0.00 in0.0 mm 0.08 in2.0 mm
04:43 PM 57.6°F14.2°C 53.4°F11.9°C 86% 4.0 mph W6.4 kmh W 10.1 mph16.3 kmh 30.30 in1026.1 mb 0.00 in0.0 mm 0.00 in0.0 mm 0.08 in2.0 mm
04:53 PM 57.4°F14.1°C 53.6°F12.0°C 87% 4.9 mph W7.9 kmh W 8.9 mph14.3 kmh 30.29 in1025.7 mb 0.00 in0.0 mm 0.00 in0.0 mm 0.08 in2.0 mm
05:03 PM 57.2°F14.0°C 53.6°F12.0°C 88% 0.9 mph W1.4 kmh W 6.0 mph9.7 kmh 30.29 in1025.7 mb 0.00 in0.0 mm 0.00 in0.0 mm 0.08 in2.0 mm
05:13 PM 56.8°F13.8°C 53.6°F12.0°C 89% 0.9 mph NW1.4 kmh NW 8.1 mph13.0 kmh 30.29 in1025.7 mb 0.00 in0.0 mm 0.00 in0.0 mm 0.08 in2.0 mm
05:23 PM 56.7°F13.7°C 53.4°F11.9°C 89% 0.9 mph WSW1.4 kmh WSW 8.1 mph13.0 kmh 30.30 in1026.1 mb 0.00 in0.0 mm 0.00 in0.0 mm 0.08 in2.0 mm
05:33 PM 56.5°F13.6°C 53.6°F12.0°C 90% Calm Calm -- 30.29 in1025.7 mb 0.00 in0.0 mm 0.00 in0.0 mm 0.08 in2.0 mm
05:43 PM 56.5°F13.6°C 53.6°F12.0°C 90% 0.9 mph WNW1.4 kmh WNW 11.0 mph17.7 kmh 30.29 in1025.7 mb 0.00 in0.0 mm 0.00 in0.0 mm 0.08 in2.0 mm
05:53 PM 56.5°F13.6°C 54.0°F12.2°C 91% 2.0 mph WSW3.2 kmh WSW 10.1 mph16.3 kmh 30.30 in1026.1 mb 0.00 in0.0 mm 0.00 in0.0 mm 0.08 in2.0 mm
06:03 PM 56.3°F13.5°C 53.4°F11.9°C 90% 0.9 mph SW1.4 kmh SW 10.1 mph16.3 kmh 30.29 in1025.7 mb 0.00 in0.0 mm 0.00 in0.0 mm 0.08 in2.0 mm
06:13 PM 56.1°F13.4°C 53.2°F11.8°C 90% Calm Calm 4.0 mph6.4 kmh 30.29 in1025.7 mb 0.00 in0.0 mm 0.00 in0.0 mm 0.08 in2.0 mm
06:23 PM 55.9°F13.3°C 53.4°F11.9°C 91% 0.9 mph W1.4 kmh W 8.9 mph14.3 kmh 30.29 in1025.7 mb 0.00 in0.0 mm 0.00 in0.0 mm 0.08 in2.0 mm
06:33 PM 55.9°F13.3°C 53.4°F11.9°C 91% Calm Calm -- 30.29 in1025.7 mb 0.00 in0.0 mm 0.00 in0.0 mm 0.08 in2.0 mm
06:43 PM 55.9°F13.3°C 53.4°F11.9°C 91% Calm Calm -- 30.30 in1026.1 mb 0.00 in0.0 mm 0.00 in0.0 mm 0.08 in2.0 mm
06:54 PM 55.9°F13.3°C 53.4°F11.9°C 91% Calm Calm -- 30.29 in1025.7 mb 0.00 in0.0 mm 0.00 in0.0 mm 0.08 in2.0 mm
07:04 PM 55.9°F13.3°C 53.6°F12.0°C 92% Calm Calm -- 30.29 in1025.7 mb 0.00 in0.0 mm 0.00 in0.0 mm 0.08 in2.0 mm
07:14 PM 55.8°F13.2°C 53.4°F11.9°C 92% Calm Calm 0.9 mph1.4 kmh 30.29 in1025.7 mb 0.00 in0.0 mm 0.00 in0.0 mm 0.08 in2.0 mm
07:24 PM 55.8°F13.2°C 53.4°F11.9°C 92% Calm Calm -- 30.29 in1025.7 mb 0.00 in0.0 mm 0.00 in0.0 mm 0.08 in2.0 mm
07:34 PM 55.6°F13.1°C 53.2°F11.8°C 92% Calm Calm -- 30.29 in1025.7 mb 0.00 in0.0 mm 0.00 in0.0 mm 0.08 in2.0 mm
07:44 PM 55.8°F13.2°C 53.4°F11.9°C 92% Calm Calm 8.9 mph14.3 kmh 30.29 in1025.7 mb 0.00 in0.0 mm 0.00 in0.0 mm 0.08 in2.0 mm
07:54 PM 55.6°F13.1°C 53.2°F11.8°C 92% Calm Calm 8.1 mph13.0 kmh 30.28 in1025.4 mb 0.00 in0.0 mm 0.00 in0.0 mm 0.08 in2.0 mm
08:04 PM 55.4°F13.0°C 53.1°F11.7°C 92% Calm Calm -- 30.28 in1025.4 mb 0.00 in0.0 mm 0.00 in0.0 mm 0.08 in2.0 mm
08:14 PM 55.4°F13.0°C 53.1°F11.7°C 92% Calm Calm 2.0 mph3.2 kmh 30.28 in1025.4 mb 0.00 in0.0 mm 0.00 in0.0 mm 0.08 in2.0 mm
08:24 PM 55.6°F13.1°C 53.2°F11.8°C 92% Calm Calm -- 30.28 in1025.4 mb 0.00 in0.0 mm 0.00 in0.0 mm 0.08 in2.0 mm
08:34 PM 55.6°F13.1°C 53.2°F11.8°C 92% Calm Calm -- 30.28 in1025.4 mb 0.00 in0.0 mm 0.00 in0.0 mm 0.08 in2.0 mm
08:44 PM 55.4°F13.0°C 53.1°F11.7°C 92% 0.9 mph W1.4 kmh W 6.9 mph11.1 kmh 30.28 in1025.4 mb 0.00 in0.0 mm 0.00 in0.0 mm 0.08 in2.0 mm
08:54 PM 55.2°F12.9°C 52.9°F11.6°C 92% Calm Calm 6.0 mph9.7 kmh 30.28 in1025.4 mb 0.00 in0.0 mm 0.00 in0.0 mm 0.08 in2.0 mm
09:04 PM 55.0°F12.8°C 52.7°F11.5°C 92% 0.9 mph W1.4 kmh W 6.9 mph11.1 kmh 30.28 in1025.4 mb 0.00 in0.0 mm 0.00 in0.0 mm 0.08 in2.0 mm
09:15 PM 55.0°F12.8°C 52.7°F11.5°C 92% Calm Calm 4.0 mph6.4 kmh 30.28 in1025.4 mb 0.00 in0.0 mm 0.00 in0.0 mm 0.08 in2.0 mm
09:25 PM 55.0°F12.8°C 53.1°F11.7°C 93% Calm Calm -- 30.28 in1025.4 mb 0.00 in0.0 mm 0.00 in0.0 mm 0.08 in2.0 mm
09:35 PM 55.2°F12.9°C 53.2°F11.8°C 93% Calm Calm -- 30.28 in1025.4 mb 0.00 in0.0 mm 0.00 in0.0 mm 0.08 in2.0 mm
09:45 PM 55.0°F12.8°C 52.7°F11.5°C 92% Calm Calm 2.9 mph4.7 kmh 30.27 in1025.1 mb 0.01 in0.3 mm 0.06 in1.5 mm 0.09 in2.3 mm
09:55 PM 55.0°F12.8°C 53.1°F11.7°C 93% Calm Calm -- 30.28 in1025.4 mb 0.01 in0.3 mm 0.00 in0.0 mm 0.09 in2.3 mm
10:05 PM 55.0°F12.8°C 53.1°F11.7°C 93% Calm Calm -- 30.28 in1025.4 mb 0.01 in0.3 mm 0.00 in0.0 mm 0.09 in2.3 mm
10:15 PM 55.0°F12.8°C 53.1°F11.7°C 93% Calm Calm -- 30.28 in1025.4 mb 0.02 in0.5 mm 0.06 in1.5 mm 0.10 in2.5 mm
10:25 PM 55.0°F12.8°C 53.1°F11.7°C 93% Calm Calm -- 30.28 in1025.4 mb 0.04 in1.0 mm 0.12 in3.0 mm 0.12 in3.0 mm
10:35 PM 55.0°F12.8°C 53.1°F11.7°C 93% Calm Calm -- 30.27 in1025.1 mb 0.04 in1.0 mm 0.00 in0.0 mm 0.12 in3.0 mm
10:45 PM 55.0°F12.8°C 53.1°F11.7°C 93% 0.9 mph N1.4 kmh N 12.1 mph19.5 kmh 30.28 in1025.4 mb 0.03 in0.8 mm 0.00 in0.0 mm 0.12 in3.0 mm
10:55 PM 53.8°F12.1°C 51.8°F11.0°C 93% 0.9 mph NNW1.4 kmh NNW 10.1 mph16.3 kmh 30.29 in1025.7 mb 0.03 in0.8 mm 0.00 in0.0 mm 0.12 in3.0 mm
11:05 PM 53.1°F11.7°C 51.1°F10.6°C 93% 4.9 mph N7.9 kmh N 15.0 mph24.1 kmh 30.29 in1025.7 mb 0.03 in0.8 mm 0.00 in0.0 mm 0.12 in3.0 mm
11:15 PM 52.5°F11.4°C 50.5°F10.3°C 93% 4.0 mph N6.4 kmh N 10.1 mph16.3 kmh 30.29 in1025.7 mb 0.02 in0.5 mm 0.00 in0.0 mm 0.12 in3.0 mm
11:25 PM 52.0°F11.1°C 50.0°F10.0°C 93% 2.9 mph N4.7 kmh N 14.1 mph22.7 kmh 30.28 in1025.4 mb 0.00 in0.0 mm 0.00 in0.0 mm 0.12 in3.0 mm
11:35 PM 51.8°F11.0°C 49.8°F9.9°C 93% 0.9 mph N1.4 kmh N 8.9 mph14.3 kmh 30.29 in1025.7 mb 0.00 in0.0 mm 0.00 in0.0 mm 0.12 in3.0 mm
11:45 PM 51.6°F10.9°C 49.6°F9.8°C 93% Calm Calm 0.9 mph1.4 kmh 30.29 in1025.7 mb 0.00 in0.0 mm 0.00 in0.0 mm 0.12 in3.0 mm
11:56 PM 51.6°F10.9°C 49.6°F9.8°C 93% Calm Calm -- 30.29 in1025.7 mb 0.00 in0.0 mm 0.00 in0.0 mm 0.12 in3.0 mm